createdAt,value
2019-05-20T00:01:57.873Z,22.80
2019-05-20T00:04:23.927Z,22.80
2019-05-20T00:06:49.893Z,22.80
2019-05-20T00:09:15.859Z,22.80
2019-05-20T00:11:41.825Z,22.80
2019-05-20T00:14:07.784Z,22.80
2019-05-20T00:16:33.750Z,22.80
2019-05-20T00:18:59.778Z,22.80
2019-05-20T00:21:25.765Z,22.80
2019-05-20T00:23:51.737Z,22.80
2019-05-20T00:26:18.469Z,22.80
2019-05-20T00:28:44.445Z,22.80
2019-05-20T00:31:10.436Z,22.80
2019-05-20T00:33:36.501Z,22.80
2019-05-20T00:36:02.509Z,22.70
2019-05-20T00:38:28.537Z,22.80
2019-05-20T00:40:54.498Z,22.70
2019-05-20T00:43:20.502Z,22.80
2019-05-20T00:45:46.549Z,22.70
2019-05-20T00:48:12.490Z,22.70
2019-05-20T00:50:38.447Z,22.70
2019-05-20T00:53:04.482Z,22.70
2019-05-20T00:55:30.445Z,22.70
2019-05-20T00:57:56.391Z,22.70
2019-05-20T01:00:22.332Z,22.70
2019-05-20T01:02:56.396Z,22.70
2019-05-20T01:05:16.175Z,22.80
2019-05-20T01:07:42.234Z,22.70
2019-05-20T01:10:08.280Z,22.70
2019-05-20T01:12:34.242Z,22.70
2019-05-20T01:15:00.239Z,22.70
2019-05-20T01:17:26.233Z,22.70
2019-05-20T01:19:52.281Z,22.80
2019-05-20T01:22:18.277Z,22.80
2019-05-20T01:24:44.243Z,22.80
2019-05-20T01:27:10.219Z,22.70
2019-05-20T01:29:36.193Z,22.70
2019-05-20T01:32:02.245Z,22.70
2019-05-20T01:34:28.232Z,22.70
2019-05-20T01:36:54.185Z,22.70
2019-05-20T01:39:20.413Z,22.70
2019-05-20T01:41:46.385Z,22.70
2019-05-20T01:44:12.350Z,22.70
2019-05-20T01:46:38.293Z,22.70
2019-05-20T01:49:04.295Z,22.70
2019-05-20T01:51:30.236Z,22.70
2019-05-20T01:53:56.214Z,22.70
2019-05-20T01:56:22.196Z,22.70
2019-05-20T01:58:48.280Z,22.70
2019-05-20T02:01:14.353Z,22.70
2019-05-20T02:03:40.391Z,22.70
2019-05-20T02:06:06.354Z,22.70
2019-05-20T02:08:32.337Z,22.70
2019-05-20T02:10:58.401Z,22.70
2019-05-20T02:13:26.252Z,22.70
2019-05-20T02:16:03.441Z,22.70
2019-05-20T02:18:29.503Z,22.70
2019-05-20T02:20:55.589Z,22.70
2019-05-20T02:23:21.642Z,22.70
2019-05-20T02:25:47.615Z,22.70
2019-05-20T02:28:13.662Z,22.60
2019-05-20T02:30:39.719Z,22.60
2019-05-20T02:33:05.774Z,22.70
2019-05-20T02:35:31.732Z,22.70
2019-05-20T02:37:57.782Z,22.60
2019-05-20T02:40:23.749Z,22.70
2019-05-20T02:42:49.688Z,22.60
2019-05-20T02:45:15.652Z,22.60
2019-05-20T02:47:41.605Z,22.60
2019-05-20T02:50:07.555Z,22.70
2019-05-20T02:52:33.515Z,22.70
2019-05-20T02:54:59.471Z,22.70
2019-05-20T02:57:25.421Z,22.70
2019-05-20T02:59:51.389Z,22.60
2019-05-20T03:02:17.349Z,22.70
2019-05-20T03:04:43.292Z,22.70
2019-05-20T03:07:09.269Z,22.70
2019-05-20T03:09:35.221Z,22.70
2019-05-20T03:12:01.221Z,22.70
2019-05-20T03:14:27.427Z,22.60
2019-05-20T03:16:53.541Z,22.60
2019-05-20T03:19:19.608Z,22.60
2019-05-20T03:21:45.672Z,22.60
2019-05-20T03:24:11.710Z,22.60
2019-05-20T03:26:37.675Z,22.60
2019-05-20T03:29:03.660Z,22.60
2019-05-20T03:31:29.716Z,22.60
2019-05-20T03:33:55.780Z,22.60
2019-05-20T03:36:21.742Z,22.60
2019-05-20T03:38:47.694Z,22.60
2019-05-20T03:41:13.667Z,22.60
2019-05-20T03:43:39.631Z,22.60
2019-05-20T03:46:05.598Z,22.60
2019-05-20T03:48:31.668Z,22.60
2019-05-20T03:50:57.833Z,22.60
2019-05-20T03:53:23.945Z,22.60
2019-05-20T03:55:49.990Z,22.60
2019-05-20T03:58:15.961Z,22.60
2019-05-20T04:00:42.226Z,22.70
2019-05-20T04:03:08.183Z,22.60
2019-05-20T04:05:34.136Z,22.60
2019-05-20T04:08:00.105Z,22.60
2019-05-20T04:10:26.093Z,22.60
2019-05-20T04:12:52.143Z,22.60
2019-05-20T04:15:19.298Z,22.50
2019-05-20T04:17:45.249Z,22.60
2019-05-20T04:20:11.210Z,22.60
2019-05-20T04:22:37.179Z,22.60
2019-05-20T04:25:03.212Z,22.60
2019-05-20T04:27:29.172Z,22.60
2019-05-20T04:29:55.160Z,22.60
2019-05-20T04:32:21.196Z,22.60
2019-05-20T04:34:47.268Z,22.60
2019-05-20T04:37:13.329Z,22.60
2019-05-20T04:39:39.401Z,22.60
2019-05-20T04:42:06.724Z,22.60
2019-05-20T04:44:33.136Z,22.60
2019-05-20T04:46:59.207Z,22.60
2019-05-20T04:49:25.248Z,22.60
2019-05-20T04:51:51.279Z,22.60
2019-05-20T04:54:17.289Z,22.60
2019-05-20T04:56:43.365Z,22.60
2019-05-20T04:59:09.414Z,22.70
2019-05-20T05:01:35.364Z,22.70
2019-05-20T05:04:01.425Z,22.70
2019-05-20T05:06:27.391Z,22.60
2019-05-20T05:08:53.333Z,22.60
2019-05-20T05:11:19.309Z,22.70
2019-05-20T05:13:45.356Z,22.60
2019-05-20T05:16:11.367Z,22.60
2019-05-20T05:18:37.391Z,22.60
2019-05-20T05:21:03.350Z,22.60
2019-05-20T05:23:29.329Z,22.60
2019-05-20T05:25:55.295Z,22.60
2019-05-20T05:28:21.352Z,22.60
2019-05-20T05:30:47.611Z,22.60
2019-05-20T05:33:13.580Z,22.60
2019-05-20T05:35:52.229Z,22.60
2019-05-20T05:38:08.036Z,22.70
2019-05-20T05:40:34.486Z,22.60
2019-05-20T05:43:00.446Z,22.60
2019-05-20T05:45:29.144Z,22.60
2019-05-20T05:47:54.419Z,22.60
2019-05-20T05:50:20.399Z,22.70
2019-05-20T05:52:46.366Z,22.70
2019-05-20T05:55:12.344Z,22.70
2019-05-20T05:57:38.393Z,22.70
2019-05-20T06:00:04.461Z,22.70
2019-05-20T06:02:30.527Z,22.70
2019-05-20T06:04:56.451Z,22.70
2019-05-20T06:07:22.424Z,22.70
2019-05-20T06:09:48.403Z,22.70
2019-05-20T06:12:14.503Z,22.70
2019-05-20T06:14:40.454Z,22.70
2019-05-20T06:17:06.413Z,22.70
2019-05-20T06:19:32.362Z,22.70
2019-05-20T06:21:58.354Z,22.70
2019-05-20T06:24:24.423Z,22.70
2019-05-20T06:26:50.386Z,22.70
2019-05-20T06:29:16.327Z,22.70
2019-05-20T06:31:42.290Z,22.80
2019-05-20T06:34:08.242Z,22.80
2019-05-20T06:36:36.112Z,22.80
2019-05-20T06:39:13.075Z,22.80
2019-05-20T06:41:39.155Z,22.90
2019-05-20T06:44:05.165Z,22.90
2019-05-20T06:46:31.935Z,22.90
2019-05-20T06:48:58.019Z,22.90
2019-05-20T06:51:23.985Z,22.90
2019-05-20T06:53:49.928Z,22.90
2019-05-20T06:56:15.860Z,22.90
2019-05-20T06:58:41.824Z,22.90
2019-05-20T07:01:07.792Z,22.80
2019-05-20T07:03:33.862Z,22.90
2019-05-20T07:05:59.800Z,22.90
2019-05-20T07:08:25.863Z,22.80
2019-05-20T07:10:51.939Z,22.80
2019-05-20T07:13:17.916Z,22.90
2019-05-20T07:15:43.919Z,22.90
2019-05-20T07:18:09.870Z,22.90
2019-05-20T07:20:35.827Z,22.90
2019-05-20T07:23:01.874Z,22.90
2019-05-20T07:25:28.098Z,23.00
2019-05-20T07:27:54.198Z,22.90
2019-05-20T07:30:20.163Z,23.00
2019-05-20T07:32:46.106Z,23.00
2019-05-20T07:35:26.297Z,23.00
2019-05-20T07:37:39.966Z,23.00
2019-05-20T07:40:05.928Z,23.00
2019-05-20T07:42:31.945Z,23.00
2019-05-20T07:44:57.982Z,23.10
2019-05-20T07:47:23.945Z,23.00
2019-05-20T07:49:50.026Z,23.00
2019-05-20T07:52:16.115Z,23.00
2019-05-20T07:54:42.180Z,23.00
2019-05-20T07:57:08.186Z,23.00
2019-05-20T07:59:34.238Z,23.00
2019-05-20T08:02:00.200Z,23.00
2019-05-20T08:04:26.278Z,23.00
2019-05-20T08:06:52.558Z,23.00
2019-05-20T08:09:18.514Z,23.00
2019-05-20T08:11:44.486Z,23.00
2019-05-20T08:14:10.480Z,23.00
2019-05-20T08:16:36.506Z,23.00
2019-05-20T08:19:02.453Z,23.00
2019-05-20T08:21:28.428Z,22.90
2019-05-20T08:23:54.495Z,23.00
2019-05-20T08:26:20.553Z,22.90
2019-05-20T08:28:46.621Z,22.90
2019-05-20T08:31:12.582Z,22.90
2019-05-20T08:33:38.664Z,22.90
2019-05-20T08:36:04.702Z,23.00
2019-05-20T08:38:30.692Z,22.90
2019-05-20T08:40:56.644Z,22.90
2019-05-20T08:43:22.589Z,22.90
2019-05-20T08:45:48.561Z,22.90
2019-05-20T08:48:14.600Z,23.00
2019-05-20T08:50:40.557Z,23.00
2019-05-20T08:53:06.523Z,22.90
2019-05-20T08:55:32.592Z,23.00
2019-05-20T08:57:58.655Z,22.90
2019-05-20T09:00:25.255Z,22.90
2019-05-20T09:02:51.566Z,22.90
2019-05-20T09:05:17.548Z,22.90
2019-05-20T09:07:43.638Z,22.90
2019-05-20T09:10:09.706Z,22.90
2019-05-20T09:12:35.783Z,22.90
2019-05-20T09:15:01.874Z,22.90
2019-05-20T09:17:28.211Z,22.90
2019-05-20T09:19:54.268Z,22.90
2019-05-20T09:22:20.332Z,22.90
2019-05-20T09:24:46.424Z,22.90
2019-05-20T09:27:12.665Z,23.00
2019-05-20T09:29:38.728Z,23.00
2019-05-20T09:32:04.671Z,22.90
2019-05-20T09:34:30.740Z,22.90
2019-05-20T09:36:56.804Z,22.90
2019-05-20T09:39:22.791Z,22.90
2019-05-20T09:41:48.774Z,22.90
2019-05-20T09:44:14.834Z,22.90
2019-05-20T09:46:40.889Z,22.90
2019-05-20T09:49:06.932Z,22.80
2019-05-20T09:51:32.920Z,22.90
2019-05-20T09:53:58.985Z,22.90
2019-05-20T09:56:25.053Z,22.90
2019-05-20T09:58:51.046Z,22.90
2019-05-20T10:01:17.085Z,22.90
2019-05-20T10:03:43.144Z,22.90
2019-05-20T10:06:09.176Z,22.90
2019-05-20T10:08:40.956Z,22.90
2019-05-20T10:11:03.133Z,22.90
2019-05-20T10:13:29.071Z,22.90
2019-05-20T10:15:55.056Z,22.90
2019-05-20T10:18:36.086Z,22.90
2019-05-20T10:20:48.886Z,22.90
2019-05-20T10:23:15.879Z,23.00
2019-05-20T10:25:42.123Z,23.00
2019-05-20T10:28:08.085Z,23.10
2019-05-20T10:30:34.050Z,23.10
2019-05-20T10:33:00.029Z,23.20
2019-05-20T10:35:26.064Z,23.30
2019-05-20T10:37:52.039Z,23.40
2019-05-20T10:40:18.015Z,23.60
2019-05-20T10:42:43.990Z,23.70
2019-05-20T10:45:10.022Z,23.70
2019-05-20T10:47:35.990Z,23.80
2019-05-20T10:50:01.991Z,24.00
2019-05-20T10:52:28.050Z,24.00
2019-05-20T10:54:54.026Z,24.00
2019-05-20T10:57:20.105Z,24.10
2019-05-20T10:59:46.179Z,24.20
2019-05-20T11:02:12.142Z,24.30
2019-05-20T11:04:38.203Z,24.30
2019-05-20T11:07:04.174Z,24.40
2019-05-20T11:09:30.245Z,24.40
2019-05-20T11:11:56.219Z,24.50
2019-05-20T11:14:22.266Z,24.50
2019-05-20T11:16:48.328Z,24.60
2019-05-20T11:19:14.311Z,24.60
2019-05-20T11:21:40.358Z,24.70
2019-05-20T11:24:06.333Z,24.70
2019-05-20T11:26:32.293Z,24.80
2019-05-20T11:28:58.245Z,24.70
2019-05-20T11:31:24.198Z,24.80
2019-05-20T11:33:50.160Z,24.80
2019-05-20T11:36:16.121Z,24.80
2019-05-20T11:38:42.185Z,24.80
2019-05-20T11:41:08.133Z,24.80
2019-05-20T11:43:34.120Z,24.90
2019-05-20T11:46:00.114Z,24.90
2019-05-20T11:48:26.164Z,25.00
2019-05-20T11:50:52.356Z,25.00
2019-05-20T11:53:18.448Z,25.00
2019-05-20T11:55:44.414Z,25.00
2019-05-20T11:58:15.880Z,25.00
2019-05-20T12:00:38.252Z,25.00
2019-05-20T12:03:04.326Z,25.10
2019-05-20T12:05:30.337Z,25.10
2019-05-20T12:07:56.426Z,25.10
2019-05-20T12:10:22.501Z,25.10
2019-05-20T12:12:48.563Z,25.10
2019-05-20T12:15:14.528Z,25.10
2019-05-20T12:17:40.577Z,25.10
2019-05-20T12:20:07.694Z,25.20
2019-05-20T12:22:34.640Z,25.20
2019-05-20T12:25:00.688Z,25.20
2019-05-20T12:27:26.654Z,25.20
2019-05-20T12:29:52.608Z,25.30
2019-05-20T12:32:18.604Z,25.40
2019-05-20T12:34:44.670Z,25.40
2019-05-20T12:37:10.736Z,25.40
2019-05-20T12:39:36.748Z,25.40
2019-05-20T12:42:02.780Z,25.40
2019-05-20T12:44:28.758Z,25.40
2019-05-20T12:46:54.735Z,25.50
2019-05-20T12:49:20.756Z,25.40
2019-05-20T12:51:46.931Z,25.50
2019-05-20T12:54:12.974Z,25.50
2019-05-20T12:56:38.962Z,25.40
2019-05-20T12:59:04.962Z,25.50
2019-05-20T13:01:31.009Z,25.50
2019-05-20T13:03:56.993Z,25.50
2019-05-20T13:06:23.041Z,25.50
2019-05-20T13:08:49.205Z,25.50
2019-05-20T13:11:15.162Z,25.50
2019-05-20T13:13:41.101Z,25.60
2019-05-20T13:16:07.086Z,25.50
2019-05-20T13:18:33.055Z,25.50
2019-05-20T13:20:59.007Z,25.50
2019-05-20T13:23:25.051Z,25.50
2019-05-20T13:25:51.007Z,25.50
2019-05-20T13:28:16.996Z,25.50
2019-05-20T13:30:42.962Z,25.50
2019-05-20T13:33:08.965Z,25.50
2019-05-20T13:35:34.943Z,25.60
2019-05-20T13:38:00.909Z,25.60
2019-05-20T13:40:42.915Z,25.50
2019-05-20T13:42:54.706Z,25.50
2019-05-20T13:45:20.664Z,25.50
2019-05-20T13:47:46.649Z,25.50
2019-05-20T13:50:12.675Z,25.50
2019-05-20T13:52:38.642Z,25.60
2019-05-20T13:55:04.704Z,25.60
2019-05-20T13:57:30.819Z,25.60
2019-05-20T13:59:56.849Z,25.50
2019-05-20T14:02:22.845Z,25.60
2019-05-20T14:04:48.901Z,25.60
2019-05-20T14:07:14.894Z,25.60
2019-05-20T14:09:40.956Z,25.60
2019-05-20T14:12:06.948Z,25.70
2019-05-20T14:14:32.899Z,25.60
2019-05-20T14:16:58.891Z,25.60
2019-05-20T14:19:24.930Z,25.70
2019-05-20T14:21:50.958Z,25.60
2019-05-20T14:24:17.002Z,25.60
2019-05-20T14:26:43.040Z,25.60
2019-05-20T14:29:08.995Z,25.70
2019-05-20T14:31:34.982Z,25.70
2019-05-20T14:34:00.957Z,25.70
2019-05-20T14:36:39.073Z,25.70
2019-05-20T14:38:55.328Z,25.80
2019-05-20T14:41:22.200Z,25.70
2019-05-20T14:43:48.322Z,25.80
2019-05-20T14:46:14.472Z,25.70
2019-05-20T14:48:40.453Z,25.70
2019-05-20T14:51:06.417Z,25.80
2019-05-20T14:53:32.387Z,25.80
2019-05-20T14:55:58.416Z,25.80
2019-05-20T14:58:24.437Z,25.70
2019-05-20T15:00:50.489Z,25.70
2019-05-20T15:03:16.551Z,25.80
2019-05-20T15:05:42.600Z,25.80
2019-05-20T15:08:08.579Z,25.80
2019-05-20T15:10:34.636Z,25.80
2019-05-20T15:13:00.628Z,25.70
2019-05-20T15:15:26.708Z,25.60
2019-05-20T15:17:52.775Z,25.40
2019-05-20T15:20:18.760Z,25.40
2019-05-20T15:22:44.835Z,25.30
2019-05-20T15:25:11.447Z,25.20
2019-05-20T15:27:37.827Z,25.00
2019-05-20T15:30:03.777Z,25.00
2019-05-20T15:32:29.862Z,24.90
2019-05-20T15:34:55.996Z,24.80
2019-05-20T15:37:22.112Z,24.70
2019-05-20T15:39:48.269Z,24.70
2019-05-20T15:42:14.343Z,24.60
2019-05-20T15:44:40.397Z,24.50
2019-05-20T15:47:06.364Z,24.50
2019-05-20T15:49:32.409Z,24.40
2019-05-20T15:51:58.382Z,24.30
2019-05-20T15:54:24.360Z,24.30
2019-05-20T15:56:50.334Z,24.30
2019-05-20T15:59:16.366Z,24.30
2019-05-20T16:01:42.348Z,24.20
2019-05-20T16:04:08.384Z,24.10
2019-05-20T16:06:34.353Z,24.10
2019-05-20T16:09:00.405Z,24.10
2019-05-20T16:11:26.757Z,24.00
2019-05-20T16:13:53.046Z,24.00
2019-05-20T16:16:18.991Z,24.00
2019-05-20T16:18:44.952Z,24.00
2019-05-20T16:21:10.928Z,24.00
2019-05-20T16:23:36.892Z,23.90
2019-05-20T16:26:02.960Z,23.90
2019-05-20T16:28:32.437Z,23.90
2019-05-20T16:30:59.308Z,23.80
2019-05-20T16:33:25.251Z,23.80
2019-05-20T16:35:51.197Z,23.80
2019-05-20T16:38:17.161Z,23.80
2019-05-20T16:40:45.910Z,23.90
2019-05-20T16:43:12.009Z,23.90
2019-05-20T16:45:38.071Z,23.90
2019-05-20T16:48:04.114Z,23.80
2019-05-20T16:50:30.100Z,23.80
2019-05-20T16:52:56.155Z,23.80
2019-05-20T16:55:22.108Z,23.80
2019-05-20T16:57:48.276Z,23.80
2019-05-20T17:00:29.881Z,23.80
2019-05-20T17:02:42.312Z,23.80
2019-05-20T17:05:08.380Z,23.70
2019-05-20T17:07:34.504Z,23.80
2019-05-20T17:10:00.618Z,23.70
2019-05-20T17:12:26.641Z,23.70
2019-05-20T17:14:52.609Z,23.70
2019-05-20T17:17:18.734Z,23.70
2019-05-20T17:19:44.810Z,23.70
2019-05-20T17:22:10.869Z,23.70
2019-05-20T17:24:36.822Z,23.60
2019-05-20T17:27:02.789Z,23.60
2019-05-20T17:29:28.823Z,23.60
2019-05-20T17:31:54.859Z,23.60
2019-05-20T17:34:20.817Z,23.60
2019-05-20T17:36:46.788Z,23.60
2019-05-20T17:39:12.729Z,23.60
2019-05-20T17:41:38.726Z,23.60
2019-05-20T17:44:04.766Z,23.60
2019-05-20T17:46:30.764Z,23.60
2019-05-20T17:48:56.694Z,23.50
2019-05-20T17:51:22.661Z,23.50
2019-05-20T17:53:48.624Z,23.60
2019-05-20T17:56:14.673Z,23.50
2019-05-20T17:58:40.609Z,23.50
2019-05-20T18:01:15.189Z,23.60
2019-05-20T18:03:34.420Z,23.50
2019-05-20T18:06:00.373Z,23.50
2019-05-20T18:08:28.246Z,23.50
2019-05-20T18:10:54.223Z,23.50
2019-05-20T18:13:20.303Z,23.50
2019-05-20T18:15:46.272Z,23.40
2019-05-20T18:18:12.233Z,23.40
2019-05-20T18:20:38.184Z,23.40
2019-05-20T18:23:04.158Z,23.40
2019-05-20T18:25:30.129Z,23.40
2019-05-20T18:27:56.078Z,23.40
2019-05-20T18:30:22.051Z,23.40
2019-05-20T18:32:48.120Z,23.40
2019-05-20T18:35:14.193Z,23.40
2019-05-20T18:37:40.175Z,23.40
2019-05-20T18:40:13.926Z,23.40
2019-05-20T18:42:34.091Z,23.40
2019-05-20T18:45:00.042Z,23.40
2019-05-20T18:47:26.035Z,23.40
2019-05-20T18:49:52.019Z,23.40
2019-05-20T18:52:18.098Z,23.40
2019-05-20T18:54:44.069Z,23.40
2019-05-20T18:57:10.130Z,23.40
2019-05-20T18:59:36.216Z,23.40
2019-05-20T19:02:05.490Z,23.40
2019-05-20T19:04:30.113Z,23.40
2019-05-20T19:06:56.143Z,23.40
2019-05-20T19:09:22.161Z,23.40
2019-05-20T19:11:48.223Z,23.30
2019-05-20T19:14:14.230Z,23.30
2019-05-20T19:16:40.295Z,23.30
2019-05-20T19:19:06.465Z,23.30
2019-05-20T19:21:32.446Z,23.30
2019-05-20T19:23:58.523Z,23.30
2019-05-20T19:26:25.592Z,23.30
2019-05-20T19:28:51.747Z,23.30
2019-05-20T19:31:17.689Z,23.30
2019-05-20T19:33:43.649Z,23.30
2019-05-20T19:36:12.895Z,23.30
2019-05-20T19:38:38.899Z,23.30
2019-05-20T19:41:04.918Z,23.30
2019-05-20T19:43:31.005Z,23.30
2019-05-20T19:45:56.952Z,23.30
2019-05-20T19:48:22.932Z,23.30
2019-05-20T19:50:48.899Z,23.30
2019-05-20T19:53:15.001Z,23.30
2019-05-20T19:55:41.077Z,23.20
2019-05-20T19:58:07.134Z,23.30
2019-05-20T20:00:33.089Z,23.30
2019-05-20T20:02:59.161Z,23.30
2019-05-20T20:05:25.126Z,23.20
2019-05-20T20:07:51.087Z,23.30
2019-05-20T20:10:17.108Z,23.20
2019-05-20T20:12:43.158Z,23.20
2019-05-20T20:15:09.150Z,23.20
2019-05-20T20:17:35.115Z,23.30
2019-05-20T20:20:01.191Z,23.30
2019-05-20T20:22:27.138Z,23.20
2019-05-20T20:24:53.173Z,23.20
2019-05-20T20:27:19.188Z,23.20
2019-05-20T20:29:45.169Z,23.20
2019-05-20T20:32:11.228Z,23.20
2019-05-20T20:34:37.204Z,23.20
2019-05-20T20:37:03.164Z,23.20
2019-05-20T20:39:29.154Z,23.20
2019-05-20T20:41:55.111Z,23.20
2019-05-20T20:44:21.076Z,23.20
2019-05-20T20:46:47.037Z,23.20
2019-05-20T20:49:14.864Z,23.20
2019-05-20T20:51:40.963Z,23.20
2019-05-20T20:54:06.919Z,23.20
2019-05-20T20:56:34.335Z,23.10
2019-05-20T20:59:00.478Z,23.20
2019-05-20T21:01:26.546Z,23.10
2019-05-20T21:03:52.511Z,23.10
2019-05-20T21:06:18.478Z,23.10
2019-05-20T21:08:44.454Z,23.10
2019-05-20T21:11:10.395Z,23.10
2019-05-20T21:13:36.396Z,23.10
2019-05-20T21:16:02.381Z,23.10
2019-05-20T21:18:28.465Z,23.10
2019-05-20T21:20:54.530Z,23.10
2019-05-20T21:23:20.493Z,23.10
2019-05-20T21:25:46.570Z,23.10
2019-05-20T21:28:12.546Z,23.10
2019-05-20T21:30:38.526Z,23.00
2019-05-20T21:33:09.412Z,23.00
2019-05-20T21:35:32.364Z,23.00
2019-05-20T21:37:58.350Z,23.00
2019-05-20T21:40:24.316Z,23.00
2019-05-20T21:42:50.267Z,23.00
2019-05-20T21:45:16.224Z,23.00
2019-05-20T21:47:44.691Z,23.00
2019-05-20T21:50:10.060Z,23.00
2019-05-20T21:52:36.067Z,23.00
2019-05-20T21:55:02.116Z,23.00
2019-05-20T21:57:28.166Z,23.00
2019-05-20T21:59:54.135Z,23.00
2019-05-20T22:02:20.119Z,23.00
2019-05-20T22:04:46.079Z,23.00
2019-05-20T22:07:12.035Z,23.00
2019-05-20T22:09:38.012Z,23.00
2019-05-20T22:12:04.078Z,22.90
2019-05-20T22:14:30.164Z,23.00
2019-05-20T22:16:56.234Z,22.90
2019-05-20T22:19:22.279Z,23.00
2019-05-20T22:21:50.149Z,23.00
2019-05-20T22:24:16.129Z,23.00
2019-05-20T22:26:42.092Z,23.00
2019-05-20T22:29:08.078Z,23.00
2019-05-20T22:31:52.530Z,22.90
2019-05-20T22:34:18.504Z,22.90
2019-05-20T22:36:45.229Z,23.00
2019-05-20T22:39:11.202Z,22.90
2019-05-20T22:41:37.278Z,22.90
2019-05-20T22:44:03.255Z,22.90
2019-05-20T22:46:29.253Z,22.90
2019-05-20T22:48:55.325Z,22.90
2019-05-20T22:51:21.395Z,22.90
2019-05-20T22:53:47.347Z,22.90
2019-05-20T22:56:13.393Z,22.90
2019-05-20T22:58:39.366Z,22.90
2019-05-20T23:01:05.363Z,22.90
2019-05-20T23:03:31.333Z,22.90
2019-05-20T23:05:57.393Z,22.90
2019-05-20T23:08:23.369Z,22.90
2019-05-20T23:10:49.359Z,22.90
2019-05-20T23:13:15.419Z,22.90
2019-05-20T23:15:41.379Z,22.90
2019-05-20T23:18:07.336Z,22.80
2019-05-20T23:20:33.290Z,22.80
2019-05-20T23:22:59.350Z,22.80
2019-05-20T23:25:25.281Z,22.90
2019-05-20T23:27:51.229Z,22.80
2019-05-20T23:30:17.182Z,22.90
2019-05-20T23:32:43.150Z,22.80
2019-05-20T23:35:09.188Z,22.90
2019-05-20T23:37:35.128Z,22.80
2019-05-20T23:40:01.121Z,22.80
2019-05-20T23:42:27.134Z,22.80
2019-05-20T23:44:53.055Z,22.80
2019-05-20T23:47:18.983Z,22.80
2019-05-20T23:49:44.904Z,22.80
2019-05-20T23:52:10.826Z,22.80
2019-05-20T23:54:36.749Z,22.80
2019-05-20T23:57:02.674Z,22.80
2019-05-20T23:59:28.603Z,22.80
